createdAt,value
2023-03-22T00:02:26.164Z,7.32
2023-03-22T00:04:54.571Z,7.33
2023-03-22T00:07:24.049Z,7.31
2023-03-22T00:09:52.172Z,7.32
2023-03-22T00:12:20.244Z,7.31
2023-03-22T00:14:49.455Z,7.28
2023-03-22T00:17:17.685Z,7.31
2023-03-22T00:19:46.454Z,7.30
2023-03-22T00:22:14.672Z,7.29
2023-03-22T00:24:44.289Z,7.28
2023-03-22T00:27:12.392Z,7.25
2023-03-22T00:29:40.721Z,7.24
2023-03-22T00:32:08.889Z,7.26
2023-03-22T00:34:37.043Z,7.27
2023-03-22T00:37:05.328Z,7.28
2023-03-22T00:39:33.503Z,7.27
2023-03-22T00:42:04.436Z,7.25
2023-03-22T00:44:33.052Z,7.25
2023-03-22T00:47:01.544Z,7.29
2023-03-22T00:49:31.263Z,7.28
2023-03-22T00:51:59.508Z,7.30
2023-03-22T00:54:27.633Z,7.32
2023-03-22T00:56:55.884Z,7.32
2023-03-22T00:59:25.264Z,7.33
2023-03-22T01:01:53.437Z,7.33
2023-03-22T01:04:25.892Z,7.33
2023-03-22T01:06:59.371Z,7.32
2023-03-22T01:09:30.925Z,7.30
2023-03-22T01:11:59.944Z,7.28
2023-03-22T01:14:31.848Z,7.26
2023-03-22T01:17:00.166Z,7.24
2023-03-22T01:19:28.551Z,7.24
2023-03-22T01:21:57.655Z,7.22
2023-03-22T01:24:25.933Z,7.21
2023-03-22T01:26:54.226Z,7.21
2023-03-22T01:29:22.376Z,7.21
2023-03-22T01:31:52.901Z,7.22
2023-03-22T01:34:22.337Z,7.24
2023-03-22T01:36:51.412Z,7.26
2023-03-22T01:39:20.081Z,7.26
2023-03-22T01:41:51.221Z,7.27
2023-03-22T01:44:21.866Z,7.28
2023-03-22T01:46:53.102Z,7.26
2023-03-22T01:49:27.735Z,7.25
2023-03-22T01:51:58.678Z,7.26
2023-03-22T01:54:49.194Z,7.26
2023-03-22T01:57:28.806Z,7.28
2023-03-22T02:00:04.023Z,7.28
2023-03-22T02:02:46.153Z,7.31
2023-03-22T02:05:24.152Z,7.33
2023-03-22T02:07:54.381Z,7.35
2023-03-22T02:10:27.625Z,7.35
2023-03-22T02:13:20.248Z,7.32
2023-03-22T02:16:04.636Z,7.30
2023-03-22T02:18:55.972Z,7.29
2023-03-22T02:21:54.666Z,7.29
2023-03-22T02:24:47.004Z,7.31
2023-03-22T02:27:28.802Z,7.31
2023-03-22T02:30:14.281Z,7.31
2023-03-22T02:33:00.183Z,7.31
2023-03-22T02:35:43.219Z,7.27
2023-03-22T02:38:37.999Z,7.28
2023-03-22T02:41:14.970Z,7.26
2023-03-22T02:43:52.863Z,7.23
2023-03-22T02:46:26.206Z,7.23
2023-03-22T02:49:01.898Z,7.22
2023-03-22T02:51:37.352Z,7.21
2023-03-22T02:54:10.925Z,7.22
2023-03-22T02:56:44.813Z,7.19
2023-03-22T02:59:14.703Z,7.20
2023-03-22T03:01:47.416Z,7.20
2023-03-22T03:04:20.563Z,7.21
2023-03-22T03:06:52.179Z,7.23
2023-03-22T03:09:22.481Z,7.23
2023-03-22T03:11:54.000Z,7.22
2023-03-22T03:14:24.955Z,7.23
2023-03-22T03:17:07.635Z,7.22
2023-03-22T03:19:42.317Z,7.21
2023-03-22T03:22:27.424Z,7.25
2023-03-22T03:25:03.222Z,7.25
2023-03-22T03:27:38.571Z,7.27
2023-03-22T03:30:13.584Z,7.29
2023-03-22T03:32:49.204Z,7.30
2023-03-22T03:35:23.443Z,7.30
2023-03-22T03:37:57.661Z,7.31
2023-03-22T03:40:31.795Z,7.32
2023-03-22T03:43:04.655Z,7.34
2023-03-22T03:45:33.409Z,7.34
2023-03-22T03:48:07.089Z,7.30
2023-03-22T03:50:36.202Z,7.31
2023-03-22T03:53:04.632Z,7.31
2023-03-22T03:55:33.567Z,7.29
2023-03-22T03:58:03.059Z,7.28
2023-03-22T04:00:31.357Z,7.30
2023-03-22T04:03:19.518Z,7.33
2023-03-22T04:06:10.974Z,7.32
2023-03-22T04:08:45.604Z,7.32
2023-03-22T04:11:16.786Z,7.30
2023-03-22T04:13:49.480Z,7.33
2023-03-22T04:16:21.583Z,7.35
2023-03-22T04:18:50.224Z,7.36
2023-03-22T04:21:18.349Z,7.35
2023-03-22T04:23:56.165Z,7.34
2023-03-22T04:26:26.649Z,7.36
2023-03-22T04:29:11.408Z,7.35
2023-03-22T04:31:45.393Z,7.37
2023-03-22T04:34:31.509Z,7.40
2023-03-22T04:37:04.146Z,7.41
2023-03-22T04:39:38.326Z,7.47
2023-03-22T04:42:25.373Z,7.47
2023-03-22T04:45:05.827Z,7.48
2023-03-22T04:47:35.972Z,7.49
2023-03-22T04:50:07.939Z,7.51
2023-03-22T04:52:43.297Z,7.52
2023-03-22T04:55:12.238Z,7.53
2023-03-22T04:57:40.549Z,7.52
2023-03-22T05:00:11.001Z,7.48
2023-03-22T05:02:41.512Z,7.47
2023-03-22T05:05:17.801Z,7.49
2023-03-22T05:07:47.501Z,7.49
2023-03-22T05:10:16.020Z,7.47
2023-03-22T05:12:44.361Z,7.47
2023-03-22T05:15:24.223Z,7.49
2023-03-22T05:17:55.770Z,7.50
2023-03-22T05:20:24.996Z,7.48
2023-03-22T05:23:07.521Z,7.46
2023-03-22T05:25:35.849Z,7.46
2023-03-22T05:28:04.198Z,7.45
2023-03-22T05:30:44.472Z,7.45
2023-03-22T05:33:25.261Z,7.40
2023-03-22T05:35:57.272Z,7.37
2023-03-22T05:38:28.157Z,7.34
2023-03-22T05:40:59.205Z,7.33
2023-03-22T05:43:27.634Z,7.33
2023-03-22T05:45:57.115Z,7.32
2023-03-22T05:48:35.971Z,7.29
2023-03-22T05:51:07.382Z,7.28
2023-03-22T05:53:35.938Z,7.29
2023-03-22T05:56:16.736Z,7.33
2023-03-22T05:58:47.846Z,7.31
2023-03-22T06:01:21.463Z,7.29
2023-03-22T06:04:09.448Z,7.24
2023-03-22T06:06:51.485Z,7.15
2023-03-22T06:09:37.933Z,7.10
2023-03-22T06:12:09.689Z,7.12
2023-03-22T06:14:38.576Z,7.12
2023-03-22T06:17:16.071Z,7.13
2023-03-22T06:19:45.158Z,7.15
2023-03-22T06:22:15.030Z,7.09
2023-03-22T06:24:44.220Z,6.99
2023-03-22T06:27:18.977Z,6.98
2023-03-22T06:29:50.749Z,6.95
2023-03-22T06:32:24.662Z,6.93
2023-03-22T06:34:52.861Z,6.92
2023-03-22T06:37:22.722Z,6.93
2023-03-22T06:39:51.357Z,6.90
2023-03-22T06:42:21.544Z,6.92
2023-03-22T06:45:00.998Z,6.89
2023-03-22T06:47:34.312Z,6.90
2023-03-22T06:50:02.497Z,6.89
2023-03-22T06:52:50.566Z,6.86
2023-03-22T06:55:19.236Z,6.85
2023-03-22T06:57:47.386Z,6.85
2023-03-22T07:00:16.666Z,6.84
2023-03-22T07:02:46.245Z,6.86
2023-03-22T07:05:22.422Z,6.84
2023-03-22T07:07:50.797Z,6.80
2023-03-22T07:10:19.177Z,6.79
2023-03-22T07:12:47.357Z,6.77
2023-03-22T07:15:18.800Z,6.81
2023-03-22T07:17:56.521Z,6.85
2023-03-22T07:20:24.701Z,6.86
2023-03-22T07:22:52.843Z,6.88
2023-03-22T07:25:23.458Z,6.90
2023-03-22T07:28:00.869Z,6.95
2023-03-22T07:30:29.792Z,7.00
2023-03-22T07:32:59.343Z,7.05
2023-03-22T07:35:27.990Z,7.08
2023-03-22T07:37:56.551Z,7.09
2023-03-22T07:40:30.967Z,7.12
2023-03-22T07:42:59.971Z,7.13
2023-03-22T07:45:46.630Z,7.14
2023-03-22T07:48:34.862Z,7.14
2023-03-22T07:51:22.905Z,7.15
2023-03-22T07:53:51.497Z,7.17
2023-03-22T07:56:19.715Z,7.15
2023-03-22T07:58:48.389Z,7.14
2023-03-22T08:01:16.565Z,7.12
2023-03-22T08:03:58.387Z,7.08
2023-03-22T08:06:36.946Z,7.02
2023-03-22T08:09:05.799Z,7.00
2023-03-22T08:11:33.920Z,6.95
2023-03-22T08:14:02.097Z,6.90
2023-03-22T08:16:32.930Z,6.81
2023-03-22T08:19:04.246Z,6.75
2023-03-22T08:21:36.564Z,6.71
2023-03-22T08:24:07.448Z,6.70
2023-03-22T08:26:54.595Z,6.65
2023-03-22T08:29:34.038Z,6.58
2023-03-22T08:32:04.521Z,6.59
2023-03-22T08:34:37.978Z,6.54
2023-03-22T08:37:06.626Z,6.50
2023-03-22T08:39:54.244Z,6.49
2023-03-22T08:42:34.652Z,6.53
2023-03-22T08:45:03.881Z,6.65
2023-03-22T08:47:34.406Z,6.80
2023-03-22T08:50:07.016Z,6.95
2023-03-22T08:52:44.882Z,7.12
2023-03-22T08:55:23.485Z,7.25
2023-03-22T08:58:11.322Z,7.34
2023-03-22T09:00:58.115Z,7.41
2023-03-22T09:03:32.171Z,7.53
2023-03-22T09:06:01.735Z,7.65
2023-03-22T09:08:34.254Z,7.78
2023-03-22T09:11:09.891Z,7.92
2023-03-22T09:13:38.362Z,8.03
2023-03-22T09:16:08.926Z,8.07
2023-03-22T09:18:37.402Z,8.24
2023-03-22T09:21:13.460Z,8.38
2023-03-22T09:23:50.914Z,8.45
2023-03-22T09:26:24.185Z,8.49
2023-03-22T09:28:53.807Z,8.56
2023-03-22T09:31:22.102Z,8.72
2023-03-22T09:34:01.261Z,8.81
2023-03-22T09:36:32.345Z,8.88
2023-03-22T09:39:00.934Z,8.97
2023-03-22T09:41:37.942Z,9.14
2023-03-22T09:44:09.704Z,9.37
2023-03-22T09:46:41.907Z,9.42
2023-03-22T09:49:17.274Z,9.17
2023-03-22T09:51:48.728Z,9.18
2023-03-22T09:54:21.453Z,9.28
2023-03-22T09:56:54.494Z,9.37
2023-03-22T09:59:31.810Z,9.33
2023-03-22T10:02:02.620Z,9.51
2023-03-22T10:04:46.165Z,9.81
2023-03-22T10:07:27.192Z,9.99
2023-03-22T10:10:06.853Z,10.25
2023-03-22T10:12:43.900Z,10.46
2023-03-22T10:15:16.166Z,10.66
2023-03-22T10:17:48.018Z,10.60
2023-03-22T10:20:29.800Z,10.51
2023-03-22T10:23:02.477Z,10.44
2023-03-22T10:25:37.271Z,10.38
2023-03-22T10:28:16.549Z,10.47
2023-03-22T10:30:51.033Z,10.82
2023-03-22T10:33:27.180Z,11.09
2023-03-22T10:35:56.908Z,11.20
2023-03-22T10:38:28.732Z,11.37
2023-03-22T10:40:59.447Z,11.27
2023-03-22T10:43:33.377Z,11.46
2023-03-22T10:46:03.866Z,11.63
2023-03-22T10:48:36.294Z,11.29
2023-03-22T10:51:05.350Z,10.64
2023-03-22T10:53:39.634Z,10.36
2023-03-22T10:56:13.983Z,10.29
2023-03-22T10:58:42.245Z,10.34
2023-03-22T11:01:12.234Z,10.07
2023-03-22T11:03:42.770Z,10.02
2023-03-22T11:06:13.638Z,9.94
2023-03-22T11:08:46.554Z,10.08
2023-03-22T11:11:24.236Z,10.58
2023-03-22T11:13:59.588Z,10.95
2023-03-22T11:16:28.035Z,11.38
2023-03-22T11:18:58.280Z,11.92
2023-03-22T11:21:32.279Z,12.32
2023-03-22T11:24:06.479Z,12.33
2023-03-22T11:26:40.586Z,12.37
2023-03-22T11:29:14.786Z,12.06
2023-03-22T11:32:01.728Z,12.16
2023-03-22T11:34:31.748Z,12.14
2023-03-22T11:37:02.000Z,12.23
2023-03-22T11:39:31.630Z,12.28
2023-03-22T11:42:01.686Z,12.43
2023-03-22T11:44:35.494Z,12.38
2023-03-22T11:47:04.793Z,12.46
2023-03-22T11:49:41.218Z,12.80
2023-03-22T11:52:13.833Z,13.08
2023-03-22T11:54:45.793Z,13.06
2023-03-22T11:57:18.560Z,13.30
2023-03-22T11:59:50.053Z,13.23
2023-03-22T12:02:24.879Z,12.76
2023-03-22T12:05:00.844Z,12.54
2023-03-22T12:07:31.975Z,12.48
2023-03-22T12:10:06.458Z,12.46
2023-03-22T12:12:39.801Z,12.38
2023-03-22T12:15:16.647Z,12.07
2023-03-22T12:17:50.367Z,11.65
2023-03-22T12:20:28.633Z,11.46
2023-03-22T12:22:57.788Z,11.37
2023-03-22T12:25:32.601Z,11.54
2023-03-22T12:28:06.325Z,12.32
2023-03-22T12:30:43.070Z,13.31
2023-03-22T12:33:18.754Z,13.71
2023-03-22T12:35:48.493Z,13.14
2023-03-22T12:38:33.897Z,12.55
2023-03-22T12:41:08.171Z,12.51
2023-03-22T12:43:43.443Z,12.76
2023-03-22T12:46:19.495Z,12.78
2023-03-22T12:48:51.684Z,12.58
2023-03-22T12:51:20.032Z,12.27
2023-03-22T12:53:51.911Z,11.98
2023-03-22T12:56:24.711Z,11.79
2023-03-22T12:58:55.862Z,11.59
2023-03-22T13:01:33.339Z,11.43
2023-03-22T13:04:21.634Z,11.34
2023-03-22T13:07:11.767Z,11.34
2023-03-22T13:09:43.394Z,11.31
2023-03-22T13:12:32.855Z,11.39
2023-03-22T13:15:06.302Z,11.43
2023-03-22T13:17:41.767Z,11.52
2023-03-22T13:20:30.863Z,11.73
2023-03-22T13:23:03.113Z,11.86
2023-03-22T13:25:36.010Z,11.94
2023-03-22T13:28:24.666Z,12.22
2023-03-22T13:30:54.555Z,12.46
2023-03-22T13:33:28.266Z,12.42
2023-03-22T13:35:58.996Z,12.76
2023-03-22T13:38:29.992Z,13.30
2023-03-22T13:41:02.767Z,13.51
2023-03-22T13:43:35.330Z,13.07
2023-03-22T13:46:13.998Z,12.71
2023-03-22T13:48:52.279Z,12.31
2023-03-22T13:51:29.288Z,12.05
2023-03-22T13:54:03.524Z,11.99
2023-03-22T13:56:47.861Z,11.84
2023-03-22T13:59:21.823Z,11.63
2023-03-22T14:01:53.296Z,11.53
2023-03-22T14:04:26.849Z,11.54
2023-03-22T14:06:57.422Z,11.57
2023-03-22T14:09:32.393Z,11.50
2023-03-22T14:12:08.046Z,11.50
2023-03-22T14:14:43.162Z,11.39
2023-03-22T14:17:22.982Z,11.35
2023-03-22T14:19:53.460Z,11.32
